Have a Safe July 4th! 

Flight Track Log - Related Links

Times and Time Zones

All times are in EST time to prevent confusion due to time zone crossing. See the N400PU flight status page for this flight to view local times or setup timezone preferences in your user account.

Time Position Orientation Groundspeed Altitude Reporting Facility
EST Latitude Longitude Course Direction KTS MPH feet Rate Location/Type
Thu 04:14:03 PM 40.4139 -86.9636 299° West 157 181 1,700  Level Chicago Center
Thu 04:14:16 PM 40.4197 -86.9775 299° West 177 204 2,500 3,246 Climbing Chicago Center
Thu 04:15:04 PM 40.4656 -86.9908 348° North 208 239 5,000 2,852 Climbing Chicago Center
Thu 04:15:17 PM 40.4739 -86.9814 41° Northeast 234 269 5,400 2,613 Climbing Chicago Center
Thu 04:16:06 PM 40.5058 -86.9194 56° Northeast 247 284 7,700 2,273 Climbing Chicago Center
Thu 04:16:23 PM 40.5128 -86.8881 74° East 287 330 7,900 290 Climbing Chicago Center
Thu 04:17:08 PM 40.5339 -86.8186 68° East 285 328 8,000 100 Climbing Chicago Center
Thu 04:17:23 PM 40.5442 -86.7808 70° East 306 352 8,000 871 Level Chicago Center
Thu 04:18:10 PM 40.5628 -86.7181 69° East 293 337 8,900 885 Climbing Chicago Center
Thu 04:18:24 PM 40.5706 -86.6867 72° East 287 330 8,900 95 Level Chicago Center
Thu 04:19:13 PM 40.5919 -86.6181 68° East 294 338 9,000  Climbing Chicago Center
Thu 04:19:25 PM 40.6017 -86.5764 73° East 309 356 8,900  Descending Chicago Center
Thu 04:20:15 PM 40.6214 -86.5092 69° East 312 359 9,000  Climbing Chicago Center
Thu 04:20:25 PM 40.6303 -86.4742 71° East 313 360 8,900  Descending Chicago Center
Thu 04:21:17 PM 40.6575 -86.3825 69° East 310 357 9,000  Climbing Chicago Center
Thu 04:21:26 PM 40.6611 -86.3636 76° East 307 353 8,900  Descending Chicago Center
Thu 04:22:19 PM 40.6864 -86.2794 68° East 304 350 9,000  Climbing Chicago Center
Thu 04:22:26 PM 40.6897 -86.2639 74° East 301 346 8,900 -95 Descending Chicago Center
Thu 04:23:22 PM 40.7156 -86.1708 70° East 298 343 8,900  Level Chicago Center
Thu 04:23:27 PM 40.7181 -86.1558 78° East 301 346 8,900  Level Chicago Center
Thu 04:24:23 PM 40.7453 -86.0644 69° East 309 356 8,900  Level Chicago Center
Thu 04:25:25 PM 40.7733 -85.9600 70° East 305 351 8,900  Level Chicago Center
Thu 04:26:27 PM 40.8022 -85.8542 70° East 307 353 8,900  Level Chicago Center
Thu 04:27:29 PM 40.8308 -85.7500 70° East 304 350 8,900  Level Chicago Center
Thu 04:28:31 PM 40.8664 -85.6253 69° East 306 352 8,900 -871 Level Chicago Center
Thu 04:29:33 PM 40.9103 -85.5361 57° Northeast 297 342 7,100 -1,872 Descending Chicago Center
Thu 04:30:36 PM 40.9556 -85.4544 54° Northeast 283 326 5,000 -1,488 Descending Chicago Center
Thu 04:31:38 PM 40.9975 -85.3769 54° Northeast 273 314 4,000 -484 Descending Chicago Center
Thu 04:32:40 PM 41.0297 -85.3181 54° Northeast 231 266 4,000  Level Chicago Center
Thu 04:33:42 PM 41.0664 -85.2486 55° Northeast 203 234 4,000 -484 Level Chicago Center
Thu 04:34:44 PM 41.0681 -85.1825 88° East 197 227 3,000 -871 Descending Chicago Center
Thu 04:35:46 PM 41.0344 -85.1397 136° Southeast 182 209 2,200 -677 Descending Chicago Center
Thu 04:36:48 PM 41.0003 -85.1575 201° Southwest 154 177 1,600 -581 Descending Chicago Center

Login

Don't have an account? Register now (free) for customized features, flight alerts, and more!